createdAt,value
2022-10-07T00:01:07.502Z,32.30
2022-10-07T00:03:36.402Z,27.60
2022-10-07T00:06:13.784Z,29.10
2022-10-07T00:08:44.754Z,27.90
2022-10-07T00:11:18.745Z,25.30
2022-10-07T00:13:48.156Z,25.60
2022-10-07T00:16:20.877Z,24.40
2022-10-07T00:18:49.003Z,41.80
2022-10-07T00:21:19.027Z,36.00
2022-10-07T00:23:48.640Z,33.40
2022-10-07T00:26:22.946Z,26.80
2022-10-07T00:28:51.318Z,24.90
2022-10-07T00:31:25.406Z,27.60
2022-10-07T00:33:55.042Z,20.50
2022-10-07T00:36:29.155Z,21.70
2022-10-07T00:38:59.628Z,24.60
2022-10-07T00:41:43.424Z,23.10
2022-10-07T00:44:32.707Z,30.30
2022-10-07T00:47:11.912Z,18.30
2022-10-07T00:49:51.571Z,19.60
2022-10-07T00:52:23.347Z,20.90
2022-10-07T00:54:53.495Z,19.20
2022-10-07T00:57:24.682Z,26.40
2022-10-07T00:59:55.367Z,18.80
2022-10-07T01:02:25.312Z,16.90
2022-10-07T01:04:56.999Z,21.10
2022-10-07T01:07:25.825Z,24.20
2022-10-07T01:09:55.216Z,21.30
2022-10-07T01:13:23.778Z,25.90
2022-10-07T01:15:59.723Z,22.70
2022-10-07T01:18:52.807Z,35.10
2022-10-07T01:21:55.788Z,36.30
2022-10-07T01:24:48.234Z,27.20
2022-10-07T01:27:20.402Z,28.50
2022-10-07T01:29:56.120Z,28.80
2022-10-07T01:33:05.080Z,28.70
2022-10-07T01:35:36.108Z,28.60
2022-10-07T01:38:08.906Z,28.60
2022-10-07T01:40:46.385Z,23.10
2022-10-07T01:43:20.603Z,22.50
2022-10-07T01:45:50.872Z,21.40
2022-10-07T01:48:18.912Z,20.60
2022-10-07T01:50:49.920Z,25.90
2022-10-07T01:53:51.505Z,21.20
2022-10-07T01:56:36.985Z,23.90
2022-10-07T01:59:20.319Z,21.40
2022-10-07T02:01:51.139Z,24.20
2022-10-07T02:04:34.792Z,24.00
2022-10-07T02:07:25.598Z,28.90
2022-10-07T02:10:33.401Z,25.40
2022-10-07T02:13:13.883Z,22.10
2022-10-07T02:15:52.911Z,24.70
2022-10-07T02:18:21.169Z,25.50
2022-10-07T02:20:52.203Z,22.40
2022-10-07T02:23:23.781Z,29.50
2022-10-07T02:25:53.912Z,20.40
2022-10-07T02:28:24.971Z,24.80
2022-10-07T02:30:59.622Z,18.00
2022-10-07T02:33:31.165Z,18.40
2022-10-07T02:36:03.892Z,17.40
2022-10-07T02:38:31.987Z,19.00
2022-10-07T02:41:31.641Z,15.30
2022-10-07T02:44:51.451Z,19.60
2022-10-07T02:47:41.343Z,18.80
2022-10-07T02:50:15.037Z,21.70
2022-10-07T02:52:45.520Z,24.60
2022-10-07T02:55:24.714Z,17.50
2022-10-07T02:58:04.756Z,18.90
2022-10-07T03:00:35.809Z,23.80
2022-10-07T03:03:05.202Z,22.70
2022-10-07T03:05:42.894Z,23.60
2022-10-07T03:08:12.297Z,19.30
2022-10-07T03:10:42.122Z,20.80
2022-10-07T03:13:10.999Z,21.90
2022-10-07T03:15:42.726Z,23.50
2022-10-07T03:18:26.785Z,21.90
2022-10-07T03:21:01.430Z,26.30
2022-10-07T03:23:30.470Z,24.50
2022-10-07T03:26:00.719Z,26.40
2022-10-07T03:28:33.395Z,22.40
2022-10-07T03:31:11.949Z,28.40
2022-10-07T03:33:43.916Z,25.00
2022-10-07T03:36:12.698Z,24.10
2022-10-07T03:38:42.714Z,25.60
2022-10-07T03:41:11.301Z,25.40
2022-10-07T03:43:39.580Z,20.30
2022-10-07T03:46:08.006Z,29.90
2022-10-07T03:48:37.256Z,21.40
2022-10-07T03:51:05.741Z,24.20
2022-10-07T03:53:34.531Z,21.00
2022-10-07T03:56:03.109Z,22.80
2022-10-07T03:58:31.587Z,15.60
2022-10-07T04:01:08.469Z,21.50
2022-10-07T04:03:37.911Z,22.50
2022-10-07T04:06:06.464Z,20.30
2022-10-07T04:08:35.557Z,23.50
2022-10-07T04:11:04.714Z,26.70
2022-10-07T04:13:34.257Z,21.60
2022-10-07T04:16:08.861Z,27.20
2022-10-07T04:18:37.055Z,24.80
2022-10-07T04:21:05.583Z,26.50
2022-10-07T04:23:35.552Z,23.50
2022-10-07T04:26:09.545Z,34.80
2022-10-07T04:28:39.054Z,46.00
2022-10-07T04:31:11.847Z,32.70
2022-10-07T04:33:46.399Z,23.20
2022-10-07T04:36:17.791Z,23.40
2022-10-07T04:39:01.358Z,18.80
2022-10-07T04:41:32.709Z,17.20
2022-10-07T04:44:01.399Z,19.10
2022-10-07T04:46:32.923Z,14.50
2022-10-07T04:49:05.325Z,16.70
2022-10-07T04:51:33.808Z,18.40
2022-10-07T04:54:02.184Z,21.70
2022-10-07T04:56:34.759Z,15.40
2022-10-07T04:59:05.263Z,15.00
2022-10-07T05:01:33.358Z,15.50
2022-10-07T05:04:01.334Z,36.70
2022-10-07T05:06:29.507Z,17.50
2022-10-07T05:08:57.479Z,15.20
2022-10-07T05:11:26.072Z,25.60
2022-10-07T05:14:00.712Z,26.20
2022-10-07T05:16:28.613Z,15.40
2022-10-07T05:18:57.261Z,19.20
2022-10-07T05:21:25.150Z,20.70
2022-10-07T05:23:53.398Z,17.80
2022-10-07T05:26:25.455Z,19.40
2022-10-07T05:28:57.263Z,20.60
2022-10-07T05:31:30.148Z,19.10
2022-10-07T05:34:00.104Z,21.90
2022-10-07T05:36:28.484Z,23.10
2022-10-07T05:38:58.505Z,22.00
2022-10-07T05:41:31.793Z,17.40
2022-10-07T05:44:01.407Z,17.10
2022-10-07T05:46:29.472Z,20.30
2022-10-07T05:48:58.758Z,18.10
2022-10-07T05:51:29.848Z,15.70
2022-10-07T05:53:58.302Z,17.50
2022-10-07T05:56:32.220Z,14.60
2022-10-07T05:59:00.160Z,16.50
2022-10-07T06:01:29.422Z,15.00
2022-10-07T06:03:59.483Z,15.50
2022-10-07T06:06:30.339Z,17.60
2022-10-07T06:09:19.295Z,13.70
2022-10-07T06:12:05.802Z,16.50
2022-10-07T06:14:34.180Z,17.20
2022-10-07T06:17:02.851Z,16.40
2022-10-07T06:19:31.144Z,14.00
2022-10-07T06:22:01.120Z,17.40
2022-10-07T06:24:28.969Z,14.40
2022-10-07T06:26:57.289Z,11.40
2022-10-07T06:29:25.370Z,12.50
2022-10-07T06:31:53.361Z,15.50
2022-10-07T06:34:21.419Z,16.50
2022-10-07T06:36:49.359Z,12.50
2022-10-07T06:39:18.084Z,14.80
2022-10-07T06:41:47.469Z,16.70
2022-10-07T06:44:43.192Z,13.50
2022-10-07T06:47:12.697Z,16.20
2022-10-07T06:49:42.514Z,12.90
2022-10-07T06:52:11.092Z,12.50
2022-10-07T06:54:39.471Z,20.40
2022-10-07T06:57:26.391Z,25.00
2022-10-07T06:59:55.898Z,12.30
2022-10-07T07:02:25.741Z,14.60
2022-10-07T07:04:57.568Z,17.80
2022-10-07T07:07:26.664Z,11.70
2022-10-07T07:09:55.040Z,11.60
2022-10-07T07:12:25.570Z,13.00
2022-10-07T07:14:55.306Z,11.30
2022-10-07T07:17:23.351Z,12.70
2022-10-07T07:19:51.326Z,11.10
2022-10-07T07:22:19.500Z,14.20
2022-10-07T07:24:49.468Z,12.50
2022-10-07T07:27:17.588Z,12.80
2022-10-07T07:29:46.065Z,12.10
2022-10-07T07:32:14.134Z,10.00
2022-10-07T07:34:43.981Z,10.60
2022-10-07T07:37:17.430Z,11.00
2022-10-07T07:39:48.392Z,13.80
2022-10-07T07:42:19.131Z,12.60
2022-10-07T07:44:48.528Z,15.00
2022-10-07T07:47:17.623Z,13.20
2022-10-07T07:49:46.511Z,10.20
2022-10-07T07:52:19.745Z,11.50
2022-10-07T07:54:49.215Z,9.20
2022-10-07T07:57:17.178Z,11.50
2022-10-07T07:59:45.966Z,10.20
2022-10-07T08:02:15.736Z,19.30
2022-10-07T08:04:45.904Z,18.80
2022-10-07T08:07:14.383Z,16.20
2022-10-07T08:09:44.190Z,15.50
2022-10-07T08:12:14.736Z,16.50
2022-10-07T08:14:43.513Z,18.00
2022-10-07T08:17:12.093Z,16.60
2022-10-07T08:19:40.170Z,19.80
2022-10-07T08:22:09.673Z,24.80
2022-10-07T08:24:37.949Z,18.50
2022-10-07T08:27:06.325Z,11.00
2022-10-07T08:29:35.429Z,13.90
2022-10-07T08:32:03.494Z,16.50
2022-10-07T08:34:31.745Z,12.00
2022-10-07T08:36:59.640Z,14.20
2022-10-07T08:39:29.658Z,9.40
2022-10-07T08:42:28.039Z,15.80
2022-10-07T08:44:56.261Z,17.10
2022-10-07T08:47:30.644Z,15.10
2022-10-07T08:50:07.951Z,15.70
2022-10-07T08:52:41.631Z,14.20
2022-10-07T08:55:20.712Z,12.40
2022-10-07T08:58:04.327Z,14.30
2022-10-07T09:00:50.677Z,18.90
2022-10-07T09:03:33.408Z,14.50
2022-10-07T09:06:08.601Z,20.60
2022-10-07T09:08:43.593Z,19.20
2022-10-07T09:11:20.162Z,17.60
2022-10-07T09:13:54.775Z,17.00
2022-10-07T09:16:29.713Z,17.60
2022-10-07T09:19:04.068Z,13.30
2022-10-07T09:21:49.814Z,13.60
2022-10-07T09:24:24.444Z,12.40
2022-10-07T09:26:58.866Z,14.30
2022-10-07T09:29:30.755Z,15.80
2022-10-07T09:31:59.003Z,13.40
2022-10-07T09:34:29.422Z,11.50
2022-10-07T09:37:23.186Z,19.40
2022-10-07T09:39:54.065Z,19.00
2022-10-07T09:42:31.126Z,17.60
2022-10-07T09:45:03.394Z,13.80
2022-10-07T09:47:42.201Z,15.20
2022-10-07T09:50:31.691Z,18.00
2022-10-07T09:53:01.788Z,10.70
2022-10-07T09:55:40.467Z,11.40
2022-10-07T09:58:29.665Z,13.40
2022-10-07T10:01:02.277Z,12.20
2022-10-07T10:03:32.975Z,10.70
2022-10-07T10:06:03.639Z,11.60
2022-10-07T10:08:37.780Z,14.20
2022-10-07T10:11:24.055Z,12.20
2022-10-07T10:13:52.838Z,18.40
2022-10-07T10:16:40.781Z,11.20
2022-10-07T10:19:26.830Z,9.60
2022-10-07T10:21:57.100Z,12.20
2022-10-07T10:24:47.692Z,12.00
2022-10-07T10:27:45.458Z,15.80
2022-10-07T10:30:22.552Z,12.90
2022-10-07T10:33:12.302Z,10.80
2022-10-07T10:35:56.270Z,11.20
2022-10-07T10:38:41.442Z,10.50
2022-10-07T10:41:54.261Z,11.90
2022-10-07T10:44:35.418Z,16.20
2022-10-07T10:47:25.619Z,12.70
2022-10-07T10:50:12.445Z,11.20
2022-10-07T10:53:06.016Z,9.50
2022-10-07T10:55:43.606Z,14.10
2022-10-07T10:58:30.315Z,9.60
2022-10-07T11:01:42.003Z,10.20
2022-10-07T11:04:28.208Z,7.20
2022-10-07T11:07:25.699Z,10.30
2022-10-07T11:10:06.512Z,9.80
2022-10-07T11:12:40.040Z,7.90
2022-10-07T11:15:25.632Z,8.10
2022-10-07T11:17:57.272Z,8.80
2022-10-07T11:20:31.498Z,11.00
2022-10-07T11:23:16.670Z,8.10
2022-10-07T11:26:02.565Z,6.50
2022-10-07T11:31:36.589Z,7.80
2022-10-07T11:34:23.489Z,10.80
2022-10-07T11:37:06.152Z,9.20
2022-10-07T11:39:38.383Z,11.20
2022-10-07T11:42:18.955Z,7.00
2022-10-07T11:45:07.095Z,9.00
2022-10-07T11:47:41.773Z,8.20
2022-10-07T11:50:19.624Z,9.80
2022-10-07T11:52:51.175Z,6.60
2022-10-07T11:55:40.852Z,6.30
2022-10-07T11:58:39.732Z,7.60
2022-10-07T12:01:25.780Z,9.20
2022-10-07T12:04:15.419Z,6.80
2022-10-07T12:07:30.803Z,8.10
2022-10-07T12:10:05.082Z,9.20
2022-10-07T12:12:47.708Z,8.20
2022-10-07T12:15:29.933Z,10.10
2022-10-07T12:18:04.360Z,7.30
2022-10-07T12:20:53.214Z,8.80
2022-10-07T12:23:41.461Z,8.00
2022-10-07T12:26:26.735Z,7.40
2022-10-07T12:28:56.754Z,6.30
2022-10-07T12:31:24.821Z,6.60
2022-10-07T12:33:58.844Z,6.70
2022-10-07T12:36:28.622Z,7.80
2022-10-07T12:38:57.436Z,5.90
2022-10-07T12:41:28.064Z,8.10
2022-10-07T12:44:23.113Z,10.70
2022-10-07T12:46:59.855Z,9.10
2022-10-07T12:49:52.392Z,8.30
2022-10-07T12:52:32.551Z,6.80
2022-10-07T12:55:11.113Z,6.40
2022-10-07T12:57:42.211Z,6.00
2022-10-07T13:00:15.731Z,6.50
2022-10-07T13:03:28.328Z,4.70
2022-10-07T13:06:27.117Z,6.30
2022-10-07T13:09:06.961Z,5.40
2022-10-07T13:12:00.941Z,5.40
2022-10-07T13:14:43.441Z,5.60
2022-10-07T13:17:19.816Z,4.40
2022-10-07T13:19:57.100Z,6.90
2022-10-07T13:22:26.394Z,7.40
2022-10-07T13:24:56.833Z,5.00
2022-10-07T13:27:31.413Z,4.70
2022-10-07T13:30:02.247Z,6.90
2022-10-07T13:32:34.339Z,5.40
2022-10-07T13:35:36.238Z,6.30
2022-10-07T13:38:06.753Z,5.10
2022-10-07T13:40:35.810Z,9.20
2022-10-07T13:43:09.255Z,4.90
2022-10-07T13:45:46.074Z,10.00
2022-10-07T13:48:25.706Z,11.60
2022-10-07T13:50:57.075Z,7.30
2022-10-07T13:53:36.453Z,8.60
2022-10-07T13:56:30.328Z,6.40
2022-10-07T13:58:59.772Z,8.50
2022-10-07T14:01:31.185Z,6.10
2022-10-07T14:04:01.870Z,4.80
2022-10-07T14:06:35.629Z,5.10
2022-10-07T14:09:03.682Z,4.50
2022-10-07T14:11:31.765Z,4.90
2022-10-07T14:14:01.619Z,10.60
2022-10-07T14:16:32.587Z,4.80
2022-10-07T14:19:00.524Z,3.30
2022-10-07T14:21:28.560Z,4.00
2022-10-07T14:23:56.633Z,5.50
2022-10-07T14:26:43.657Z,9.60
2022-10-07T14:29:35.583Z,4.60
2022-10-07T14:32:40.205Z,7.20
2022-10-07T14:35:19.381Z,6.40
2022-10-07T14:37:48.125Z,7.80
2022-10-07T14:40:18.953Z,13.10
2022-10-07T14:42:47.947Z,10.50
2022-10-07T14:45:18.292Z,5.10
2022-10-07T14:47:46.350Z,10.50
2022-10-07T14:50:14.428Z,9.60
2022-10-07T14:52:51.940Z,8.40
2022-10-07T14:55:29.622Z,11.50
2022-10-07T14:57:57.692Z,10.10
2022-10-07T15:00:29.572Z,17.10
2022-10-07T15:02:58.336Z,16.20
2022-10-07T15:05:33.989Z,12.90
2022-10-07T15:08:01.865Z,10.00
2022-10-07T15:10:32.585Z,9.80
2022-10-07T15:13:00.664Z,9.50
2022-10-07T15:15:28.734Z,14.80
2022-10-07T15:17:56.702Z,18.40
2022-10-07T15:20:24.533Z,18.10
2022-10-07T15:22:52.540Z,16.80
2022-10-07T15:25:21.629Z,15.40
2022-10-07T15:27:49.606Z,14.30
2022-10-07T15:30:17.679Z,17.50
2022-10-07T15:32:45.849Z,13.20
2022-10-07T15:35:14.027Z,14.90
2022-10-07T15:37:46.015Z,16.60
2022-10-07T15:40:14.867Z,11.60
2022-10-07T15:42:44.897Z,14.20
2022-10-07T15:45:13.379Z,12.10
2022-10-07T15:47:41.289Z,18.10
2022-10-07T15:50:10.568Z,18.00
2022-10-07T15:52:38.620Z,14.60
2022-10-07T15:55:08.004Z,26.70
2022-10-07T15:57:36.304Z,20.80
2022-10-07T16:00:05.184Z,17.40
2022-10-07T16:02:39.852Z,13.00
2022-10-07T16:05:09.744Z,13.60
2022-10-07T16:07:37.591Z,13.90
2022-10-07T16:10:09.594Z,9.10
2022-10-07T16:12:41.519Z,14.10
2022-10-07T16:15:09.964Z,13.50
2022-10-07T16:17:37.871Z,23.60
2022-10-07T16:20:10.999Z,15.00
2022-10-07T16:22:39.334Z,11.80
2022-10-07T16:25:08.030Z,11.50
2022-10-07T16:27:55.123Z,10.60
2022-10-07T16:30:41.232Z,12.70
2022-10-07T16:33:09.201Z,12.30
2022-10-07T16:35:37.176Z,13.40
2022-10-07T16:38:05.485Z,13.00
2022-10-07T16:40:33.518Z,14.10
2022-10-07T16:43:01.594Z,12.20
2022-10-07T16:45:29.592Z,15.70
2022-10-07T16:47:57.637Z,21.20
2022-10-07T16:50:25.715Z,24.30
2022-10-07T16:52:53.675Z,19.70
2022-10-07T16:55:21.752Z,22.20
2022-10-07T16:57:49.613Z,35.60
2022-10-07T17:00:17.909Z,20.30
2022-10-07T17:02:45.786Z,24.40
2022-10-07T17:05:13.762Z,20.90
2022-10-07T17:07:41.697Z,26.00
2022-10-07T17:10:10.180Z,23.80
2022-10-07T17:12:38.168Z,23.20
2022-10-07T17:15:06.840Z,17.50
2022-10-07T17:17:34.803Z,19.00
2022-10-07T17:20:02.887Z,20.50
2022-10-07T17:22:30.843Z,23.10
2022-10-07T17:24:59.836Z,20.30
2022-10-07T17:27:27.702Z,20.50
2022-10-07T17:29:55.678Z,20.40
2022-10-07T17:32:24.364Z,20.00
2022-10-07T17:34:52.225Z,20.50
2022-10-07T17:37:20.107Z,22.60
2022-10-07T17:39:48.374Z,22.80
2022-10-07T17:42:16.341Z,25.20
2022-10-07T17:44:44.822Z,29.20
2022-10-07T17:47:12.846Z,22.90
2022-10-07T17:49:41.076Z,20.20
2022-10-07T17:52:09.003Z,19.10
2022-10-07T17:54:38.440Z,19.70
2022-10-07T17:57:06.517Z,13.50
2022-10-07T17:59:34.896Z,16.00
2022-10-07T18:02:02.763Z,15.70
2022-10-07T18:04:31.172Z,16.80
2022-10-07T18:06:59.207Z,19.20
2022-10-07T18:09:27.694Z,22.00
2022-10-07T18:12:14.508Z,20.10
2022-10-07T18:15:01.028Z,18.90
2022-10-07T18:17:28.974Z,23.50
2022-10-07T18:19:59.093Z,28.90
2022-10-07T18:22:27.250Z,22.90
2022-10-07T18:24:57.299Z,25.40
2022-10-07T18:27:27.132Z,32.20
2022-10-07T18:29:56.105Z,31.80
2022-10-07T18:32:24.666Z,40.30
2022-10-07T18:34:52.853Z,39.30
2022-10-07T18:37:21.029Z,40.00
2022-10-07T18:39:48.992Z,42.50
2022-10-07T18:42:17.071Z,46.70
2022-10-07T18:44:45.143Z,43.00
2022-10-07T18:47:13.238Z,44.10
2022-10-07T18:49:41.796Z,44.70
2022-10-07T18:52:09.769Z,39.30
2022-10-07T18:54:37.732Z,39.10
2022-10-07T18:57:05.577Z,43.20
2022-10-07T18:59:33.775Z,42.50
2022-10-07T19:02:02.185Z,39.80
2022-10-07T19:04:31.148Z,48.40
2022-10-07T19:06:59.228Z,49.10
2022-10-07T19:09:27.292Z,45.00
2022-10-07T19:11:55.573Z,46.30
2022-10-07T19:14:28.038Z,57.50
2022-10-07T19:16:56.011Z,65.10
2022-10-07T19:19:24.901Z,57.40
2022-10-07T19:21:55.343Z,60.90
2022-10-07T19:24:43.785Z,60.80
2022-10-07T19:27:11.753Z,53.90
2022-10-07T19:29:39.686Z,51.90
2022-10-07T19:32:08.831Z,45.80
2022-10-07T19:34:37.144Z,45.30
2022-10-07T19:37:05.497Z,39.90
2022-10-07T19:39:33.641Z,41.30
2022-10-07T19:42:01.715Z,44.10
2022-10-07T19:44:29.684Z,39.90
2022-10-07T19:46:58.273Z,45.10
2022-10-07T19:49:26.242Z,50.00
2022-10-07T19:51:54.212Z,54.50
2022-10-07T19:54:22.283Z,53.30
2022-10-07T19:56:50.246Z,53.50
2022-10-07T19:59:18.227Z,53.60
2022-10-07T20:01:49.796Z,64.00
2022-10-07T20:04:21.042Z,54.40
2022-10-07T20:06:49.158Z,49.40
2022-10-07T20:09:19.023Z,50.50
2022-10-07T20:11:47.295Z,51.20
2022-10-07T20:14:16.304Z,51.10
2022-10-07T20:16:44.556Z,47.80
2022-10-07T20:19:16.008Z,44.90
2022-10-07T20:21:44.793Z,40.90
2022-10-07T20:24:15.269Z,55.40
2022-10-07T20:26:44.423Z,51.70
2022-10-07T20:29:15.354Z,44.80
2022-10-07T20:31:45.120Z,43.80
2022-10-07T20:34:18.957Z,44.10
2022-10-07T20:36:47.042Z,38.40
2022-10-07T20:39:36.620Z,36.40
2022-10-07T20:42:25.957Z,38.30
2022-10-07T20:44:54.153Z,41.80
2022-10-07T20:47:23.669Z,37.30
2022-10-07T20:49:52.566Z,43.30
2022-10-07T20:52:23.341Z,40.60
2022-10-07T20:54:52.388Z,34.40
2022-10-07T20:57:24.398Z,36.50
2022-10-07T20:59:52.432Z,35.00
2022-10-07T21:02:22.211Z,33.00
2022-10-07T21:04:50.617Z,34.90
2022-10-07T21:07:19.205Z,34.40
2022-10-07T21:09:48.116Z,39.20
2022-10-07T21:12:18.112Z,43.20
2022-10-07T21:14:48.139Z,35.00
2022-10-07T21:17:16.974Z,40.10
2022-10-07T21:19:45.194Z,41.40
2022-10-07T21:22:13.170Z,35.70
2022-10-07T21:24:41.139Z,40.90
2022-10-07T21:27:09.332Z,43.70
2022-10-07T21:29:40.682Z,40.70
2022-10-07T21:32:10.773Z,36.60
2022-10-07T21:34:38.856Z,39.60
2022-10-07T21:37:07.020Z,37.40
2022-10-07T21:39:35.412Z,38.70
2022-10-07T21:42:04.295Z,31.10
2022-10-07T21:44:33.568Z,43.20
2022-10-07T21:47:01.871Z,32.90
2022-10-07T21:49:30.163Z,36.70
2022-10-07T21:51:58.111Z,30.90
2022-10-07T21:54:26.401Z,30.80
2022-10-07T21:56:54.468Z,31.10
2022-10-07T21:59:22.472Z,25.70
2022-10-07T22:01:50.475Z,24.20
2022-10-07T22:04:19.402Z,22.50
2022-10-07T22:07:06.204Z,24.20
2022-10-07T22:09:35.676Z,26.10
2022-10-07T22:12:03.689Z,27.60
2022-10-07T22:14:31.655Z,34.50
2022-10-07T22:16:59.636Z,44.30
2022-10-07T22:19:27.483Z,36.30
2022-10-07T22:21:55.665Z,44.80
2022-10-07T22:24:24.241Z,42.70
2022-10-07T22:26:52.298Z,34.60
2022-10-07T22:29:21.833Z,32.00
2022-10-07T22:31:50.210Z,41.90
2022-10-07T22:34:36.805Z,37.50
2022-10-07T22:37:05.411Z,40.50
2022-10-07T22:39:33.366Z,39.60
2022-10-07T22:42:01.735Z,34.60
2022-10-07T22:44:29.712Z,39.40
2022-10-07T22:46:59.417Z,43.70
2022-10-07T22:49:30.165Z,41.20
2022-10-07T22:52:00.033Z,36.90
2022-10-07T22:54:28.656Z,36.60
2022-10-07T22:56:56.830Z,36.50
2022-10-07T22:59:24.731Z,31.10
2022-10-07T23:01:53.280Z,25.00
2022-10-07T23:04:21.720Z,27.60
2022-10-07T23:06:49.977Z,28.80
2022-10-07T23:09:18.040Z,28.40
2022-10-07T23:11:46.213Z,29.40
2022-10-07T23:14:14.356Z,32.20
2022-10-07T23:16:42.526Z,37.30
2022-10-07T23:19:10.599Z,31.70
2022-10-07T23:21:38.572Z,29.70
2022-10-07T23:24:08.335Z,34.00
2022-10-07T23:26:37.244Z,30.00
2022-10-07T23:29:05.767Z,35.70
2022-10-07T23:31:34.161Z,23.70
2022-10-07T23:34:03.143Z,37.10
2022-10-07T23:36:31.809Z,29.50
2022-10-07T23:39:01.219Z,31.60
2022-10-07T23:41:32.160Z,28.10
2022-10-07T23:44:02.296Z,29.20
2022-10-07T23:46:33.220Z,30.60
2022-10-07T23:49:02.311Z,34.00
2022-10-07T23:51:32.526Z,31.10
2022-10-07T23:54:03.882Z,30.40
2022-10-07T23:56:32.469Z,29.40
2022-10-07T23:59:01.853Z,30.30
